createdAt,value
2022-08-22T00:00:59.770Z,13.53
2022-08-22T00:03:06.628Z,14.17
2022-08-22T00:03:09.129Z,16.46
2022-08-22T00:03:28.918Z,13.46
2022-08-22T00:06:11.639Z,13.45
2022-08-22T00:08:38.506Z,13.46
2022-08-22T00:11:14.468Z,13.44
2022-08-22T00:14:01.803Z,13.48
2022-08-22T00:16:28.925Z,13.51
2022-08-22T00:19:13.861Z,13.47
2022-08-22T00:21:56.672Z,13.45
2022-08-22T00:24:49.591Z,13.40
2022-08-22T00:27:18.295Z,13.34
2022-08-22T00:29:56.404Z,13.27
2022-08-22T00:32:33.260Z,13.16
2022-08-22T00:35:02.888Z,13.09
2022-08-22T00:37:33.431Z,13.04
2022-08-22T00:40:08.144Z,12.98
2022-08-22T00:42:53.942Z,12.90
2022-08-22T00:45:26.752Z,12.85
2022-08-22T00:47:56.401Z,12.83
2022-08-22T00:50:41.937Z,12.81
2022-08-22T00:53:08.793Z,12.78
2022-08-22T00:55:42.942Z,12.77
2022-08-22T00:58:35.875Z,12.78
2022-08-22T01:01:06.040Z,12.72
2022-08-22T01:03:56.009Z,12.75
2022-08-22T01:06:40.598Z,12.73
2022-08-22T01:09:19.441Z,12.71
2022-08-22T01:11:46.344Z,12.66
2022-08-22T01:14:35.024Z,12.62
2022-08-22T01:17:14.536Z,12.53
2022-08-22T01:19:41.390Z,12.53
2022-08-22T01:22:27.141Z,12.49
2022-08-22T01:25:00.344Z,12.47
2022-08-22T01:27:42.253Z,12.45
2022-08-22T01:30:11.926Z,12.46
2022-08-22T01:32:57.156Z,12.43
2022-08-22T01:35:31.074Z,12.41
2022-08-22T01:38:16.771Z,12.43
2022-08-22T01:40:53.843Z,12.44
2022-08-22T01:43:58.535Z,12.43
2022-08-22T01:46:21.542Z,12.41
2022-08-22T01:48:56.028Z,12.42
2022-08-22T01:51:27.051Z,12.41
2022-08-22T01:54:03.088Z,12.39
2022-08-22T01:56:35.078Z,12.38
2022-08-22T01:59:05.067Z,12.31
2022-08-22T02:01:50.212Z,12.27
2022-08-22T02:04:17.069Z,12.26
2022-08-22T02:07:02.504Z,12.26
2022-08-22T02:09:38.612Z,12.27
2022-08-22T02:12:32.015Z,12.27
2022-08-22T02:15:08.065Z,12.23
2022-08-22T02:17:48.021Z,12.19
2022-08-22T02:20:20.674Z,12.17
2022-08-22T02:22:53.655Z,12.12
2022-08-22T02:25:25.911Z,12.09
2022-08-22T02:28:13.151Z,12.09
2022-08-22T02:30:46.203Z,12.03
2022-08-22T02:33:16.078Z,12.04
2022-08-22T02:35:51.376Z,12.03
2022-08-22T02:38:25.224Z,12.02
2022-08-22T02:41:09.681Z,12.00
2022-08-22T02:43:57.262Z,12.01
2022-08-22T02:46:39.876Z,12.01
2022-08-22T02:49:21.047Z,12.00
2022-08-22T02:51:50.988Z,11.95
2022-08-22T02:54:22.436Z,11.94
2022-08-22T02:56:53.680Z,11.91
2022-08-22T02:59:20.509Z,11.90
2022-08-22T03:01:48.092Z,11.86
2022-08-22T03:04:44.457Z,11.84
2022-08-22T03:07:14.496Z,11.79
2022-08-22T03:09:47.554Z,11.77
2022-08-22T03:12:14.536Z,11.75
2022-08-22T03:14:44.749Z,11.70
2022-08-22T03:17:18.818Z,11.69
2022-08-22T03:20:04.634Z,11.68
2022-08-22T03:22:38.812Z,11.67
2022-08-22T03:25:11.680Z,11.69
2022-08-22T03:27:46.222Z,11.69
2022-08-22T03:30:21.622Z,11.69
2022-08-22T03:32:57.083Z,11.69
2022-08-22T03:35:33.016Z,11.68
2022-08-22T03:38:17.112Z,11.64
2022-08-22T03:41:03.195Z,11.59
2022-08-22T03:43:39.225Z,11.54
2022-08-22T03:46:24.778Z,11.52
2022-08-22T03:49:08.149Z,11.52
2022-08-22T03:51:38.158Z,11.50
2022-08-22T03:54:23.669Z,11.48
2022-08-22T03:56:57.485Z,11.43
2022-08-22T03:59:44.054Z,11.41
2022-08-22T04:02:43.798Z,11.41
2022-08-22T04:05:29.804Z,11.37
2022-08-22T04:07:59.912Z,11.35
2022-08-22T04:10:39.452Z,11.34
2022-08-22T04:13:33.893Z,11.32
2022-08-22T04:16:19.444Z,11.35
2022-08-22T04:18:49.358Z,11.33
2022-08-22T04:21:35.653Z,11.31
2022-08-22T04:24:05.594Z,11.33
2022-08-22T04:26:51.679Z,11.35
2022-08-22T04:29:25.742Z,11.35
2022-08-22T04:32:14.580Z,11.36
2022-08-22T04:34:48.845Z,11.37
2022-08-22T04:37:20.723Z,11.38
2022-08-22T04:39:47.651Z,11.39
2022-08-22T04:42:32.270Z,11.40
2022-08-22T04:45:06.154Z,11.42
2022-08-22T04:47:39.211Z,11.43
2022-08-22T04:50:42.576Z,11.48
2022-08-22T04:53:25.456Z,11.53
2022-08-22T04:55:58.484Z,11.60
2022-08-22T04:58:28.474Z,11.71
2022-08-22T05:01:12.204Z,11.87
2022-08-22T05:03:44.879Z,12.05
2022-08-22T05:06:13.962Z,12.21
2022-08-22T05:08:41.882Z,12.36
2022-08-22T05:11:10.814Z,12.55
2022-08-22T05:13:44.598Z,12.73
2022-08-22T05:16:15.066Z,12.92
2022-08-22T05:18:45.204Z,13.14
2022-08-22T05:21:13.885Z,13.42
2022-08-22T05:23:48.211Z,13.61
2022-08-22T05:26:15.524Z,13.75
2022-08-22T05:28:48.341Z,13.88
2022-08-22T05:31:24.977Z,14.07
2022-08-22T05:33:55.072Z,14.28
2022-08-22T05:36:24.371Z,14.38
2022-08-22T05:38:53.872Z,14.49
2022-08-22T05:41:24.003Z,14.61
2022-08-22T05:43:52.421Z,14.81
2022-08-22T05:46:26.782Z,14.82
2022-08-22T05:49:01.565Z,15.06
2022-08-22T05:51:39.453Z,15.31
2022-08-22T05:54:11.414Z,15.33
2022-08-22T05:56:43.282Z,15.41
2022-08-22T05:59:23.461Z,15.52
2022-08-22T06:01:59.373Z,15.68
2022-08-22T06:04:32.107Z,15.84
2022-08-22T06:07:13.665Z,16.00
2022-08-22T06:09:59.173Z,16.20
2022-08-22T06:12:38.262Z,16.41
2022-08-22T06:15:14.251Z,16.55
2022-08-22T06:17:48.758Z,16.85
2022-08-22T06:20:23.696Z,17.11
2022-08-22T06:22:55.838Z,17.27
2022-08-22T06:25:25.512Z,17.41
2022-08-22T06:27:53.239Z,17.53
2022-08-22T06:30:20.481Z,17.76
2022-08-22T06:32:59.767Z,17.93
2022-08-22T06:35:33.294Z,18.26
2022-08-22T06:38:00.435Z,18.53
2022-08-22T06:40:28.175Z,18.77
2022-08-22T06:42:57.076Z,18.89
2022-08-22T06:45:31.957Z,19.02
2022-08-22T06:48:05.291Z,19.21
2022-08-22T06:50:34.795Z,19.34
2022-08-22T06:53:34.918Z,19.58
2022-08-22T06:56:02.979Z,20.00
2022-08-22T06:58:34.115Z,20.25
2022-08-22T07:01:12.179Z,20.39
2022-08-22T07:03:54.217Z,20.72
2022-08-22T07:06:28.474Z,20.94
2022-08-22T07:08:55.747Z,21.14
2022-08-22T07:11:26.088Z,21.39
2022-08-22T07:14:14.150Z,21.44
2022-08-22T07:16:46.726Z,21.70
2022-08-22T07:19:23.510Z,21.61
2022-08-22T07:21:57.443Z,21.71
2022-08-22T07:24:27.303Z,21.94
2022-08-22T07:27:06.702Z,22.12
2022-08-22T07:29:41.571Z,22.38
2022-08-22T07:32:25.224Z,22.64
2022-08-22T07:35:11.610Z,22.63
2022-08-22T07:37:38.579Z,22.86
2022-08-22T07:40:26.808Z,22.90
2022-08-22T07:42:59.591Z,22.99
2022-08-22T07:45:45.176Z,23.22
2022-08-22T07:48:25.392Z,23.27
2022-08-22T07:50:52.658Z,23.56
2022-08-22T07:53:22.553Z,23.81
2022-08-22T07:55:53.245Z,24.12
2022-08-22T07:58:21.708Z,24.05
2022-08-22T08:00:48.819Z,24.27
2022-08-22T08:03:16.087Z,24.55
2022-08-22T08:05:46.434Z,24.63
2022-08-22T08:08:29.197Z,24.60
2022-08-22T08:10:57.397Z,24.96
2022-08-22T08:13:35.419Z,24.99
2022-08-22T08:16:04.781Z,25.01
2022-08-22T08:18:34.041Z,25.25
2022-08-22T08:21:06.828Z,25.51
2022-08-22T08:23:41.073Z,25.52
2022-08-22T08:26:20.784Z,25.48
2022-08-22T08:28:49.273Z,25.67
2022-08-22T08:31:19.280Z,25.83
2022-08-22T08:33:48.001Z,25.78
2022-08-22T08:36:26.829Z,26.20
2022-08-22T08:39:07.475Z,26.46
2022-08-22T08:41:46.870Z,26.67
2022-08-22T08:44:32.504Z,27.03
2022-08-22T08:47:18.170Z,27.31
2022-08-22T08:50:03.843Z,27.48
2022-08-22T08:52:39.160Z,27.27
2022-08-22T08:55:25.996Z,27.25
2022-08-22T08:58:06.550Z,27.12
2022-08-22T09:00:43.450Z,27.24
2022-08-22T09:03:29.829Z,27.30
2022-08-22T09:06:16.813Z,27.47
2022-08-22T09:08:59.121Z,27.65
2022-08-22T09:11:49.941Z,27.97
2022-08-22T09:14:36.112Z,28.04
2022-08-22T09:17:22.102Z,28.10
2022-08-22T09:20:17.585Z,28.14
2022-08-22T09:23:05.055Z,28.24
2022-08-22T09:25:40.950Z,28.37
2022-08-22T09:28:07.894Z,28.13
2022-08-22T09:30:43.893Z,27.70
2022-08-22T09:33:17.563Z,27.72
2022-08-22T09:36:05.186Z,27.84
2022-08-22T09:38:38.692Z,27.67
2022-08-22T09:41:08.533Z,27.55
2022-08-22T09:43:45.107Z,27.57
2022-08-22T09:46:15.630Z,27.24
2022-08-22T09:49:01.816Z,26.99
2022-08-22T09:51:35.530Z,26.90
2022-08-22T09:54:21.337Z,26.87
2022-08-22T09:56:51.784Z,27.04
2022-08-22T09:59:20.502Z,27.05
2022-08-22T10:01:47.476Z,27.36
2022-08-22T10:04:14.530Z,27.93
2022-08-22T10:07:06.467Z,27.85
2022-08-22T10:09:38.881Z,28.20
2022-08-22T10:12:15.838Z,28.20
2022-08-22T10:14:51.230Z,27.58
2022-08-22T10:17:28.180Z,27.92
2022-08-22T10:19:58.994Z,28.09
2022-08-22T10:22:29.936Z,28.44
2022-08-22T10:24:58.532Z,27.91
2022-08-22T10:27:36.601Z,28.17
2022-08-22T10:30:11.771Z,28.20
2022-08-22T10:32:50.178Z,28.40
2022-08-22T10:35:26.568Z,28.48
2022-08-22T10:37:56.239Z,28.77
2022-08-22T10:40:29.271Z,29.06
2022-08-22T10:43:09.357Z,29.36
2022-08-22T10:45:39.732Z,29.09
2022-08-22T10:48:19.061Z,29.41
2022-08-22T10:50:56.643Z,29.24
2022-08-22T10:53:40.558Z,28.97
2022-08-22T10:56:14.584Z,29.07
2022-08-22T10:58:49.054Z,28.77
2022-08-22T11:01:41.080Z,28.99
2022-08-22T11:04:16.341Z,29.25
2022-08-22T11:06:48.956Z,29.64
2022-08-22T11:09:37.025Z,29.64
2022-08-22T11:12:34.861Z,29.92
2022-08-22T11:15:14.629Z,29.43
2022-08-22T11:18:07.304Z,29.71
2022-08-22T11:20:46.289Z,29.73
2022-08-22T11:23:23.600Z,30.09
2022-08-22T11:26:05.046Z,30.18
2022-08-22T11:28:50.871Z,30.05
2022-08-22T11:31:47.199Z,29.51
2022-08-22T11:34:24.973Z,29.84
2022-08-22T11:37:00.508Z,29.85
2022-08-22T11:39:28.083Z,29.52
2022-08-22T11:41:59.880Z,29.49
2022-08-22T11:44:34.495Z,29.68
2022-08-22T11:47:19.058Z,29.78
2022-08-22T11:50:00.291Z,30.23
2022-08-22T11:52:39.320Z,30.31
2022-08-22T11:55:21.766Z,30.11
2022-08-22T11:57:50.959Z,30.11
2022-08-22T12:00:30.245Z,30.39
2022-08-22T12:02:57.128Z,30.40
2022-08-22T12:05:29.334Z,30.28
2022-08-22T12:08:21.338Z,30.21
2022-08-22T12:11:07.246Z,30.49
2022-08-22T12:13:37.357Z,30.79
2022-08-22T12:16:13.333Z,30.62
2022-08-22T12:18:43.238Z,30.88
2022-08-22T12:21:18.111Z,30.79
2022-08-22T12:23:54.651Z,30.82
2022-08-22T12:26:27.699Z,30.53
2022-08-22T12:28:57.494Z,30.71
2022-08-22T12:31:34.737Z,30.49
2022-08-22T12:34:09.079Z,30.82
2022-08-22T12:36:52.051Z,30.78
2022-08-22T12:39:29.159Z,30.36
2022-08-22T12:42:14.680Z,30.81
2022-08-22T12:45:01.823Z,30.70
2022-08-22T12:47:31.970Z,30.89
2022-08-22T12:50:19.264Z,31.01
2022-08-22T12:52:58.506Z,31.40
2022-08-22T12:55:30.661Z,31.63
2022-08-22T12:58:06.358Z,31.69
2022-08-22T13:00:44.088Z,31.67
2022-08-22T13:03:24.921Z,31.73
2022-08-22T13:05:57.032Z,31.83
2022-08-22T13:08:36.418Z,31.77
2022-08-22T13:11:10.009Z,31.93
2022-08-22T13:13:44.877Z,31.88
2022-08-22T13:16:24.435Z,31.62
2022-08-22T13:18:54.134Z,31.39
2022-08-22T13:21:27.557Z,30.99
2022-08-22T13:24:04.171Z,31.36
2022-08-22T13:26:34.522Z,31.64
2022-08-22T13:29:25.820Z,31.82
2022-08-22T13:31:56.259Z,31.71
2022-08-22T13:34:39.991Z,31.23
2022-08-22T13:37:12.000Z,31.48
2022-08-22T13:39:42.344Z,31.14
2022-08-22T13:42:21.211Z,30.58
2022-08-22T13:44:58.225Z,30.60
2022-08-22T13:47:26.416Z,30.54
2022-08-22T13:50:07.875Z,30.21
2022-08-22T13:52:38.137Z,30.24
2022-08-22T13:55:12.177Z,30.35
2022-08-22T13:57:59.824Z,30.38
2022-08-22T14:00:48.694Z,30.02
2022-08-22T14:03:31.366Z,30.02
2022-08-22T14:06:32.812Z,29.91
2022-08-22T14:08:47.502Z,29.75
2022-08-22T14:11:18.235Z,29.59
2022-08-22T14:13:57.771Z,29.66
2022-08-22T14:16:27.303Z,29.47
2022-08-22T14:19:06.767Z,29.38
2022-08-22T14:21:41.278Z,29.18
2022-08-22T14:24:14.357Z,29.45
2022-08-22T14:26:49.127Z,29.50
2022-08-22T14:29:16.960Z,29.37
2022-08-22T14:32:04.173Z,29.34
2022-08-22T14:34:34.065Z,29.14
2022-08-22T14:37:15.341Z,29.13
2022-08-22T14:39:54.945Z,29.00
2022-08-22T14:42:25.498Z,28.92
2022-08-22T14:45:01.749Z,28.88
2022-08-22T14:47:55.105Z,28.80
2022-08-22T14:50:54.275Z,28.72
2022-08-22T14:53:32.872Z,28.75
2022-08-22T14:56:06.555Z,28.60
2022-08-22T14:58:45.621Z,28.61
2022-08-22T15:01:15.250Z,28.59
2022-08-22T15:03:42.710Z,28.54
2022-08-22T15:06:14.706Z,28.49
2022-08-22T15:08:51.066Z,28.28
2022-08-22T15:11:21.788Z,28.19
2022-08-22T15:13:56.936Z,28.22
2022-08-22T15:16:29.260Z,28.28
2022-08-22T15:18:56.257Z,28.33
2022-08-22T15:21:25.789Z,28.40
2022-08-22T15:23:54.352Z,28.43
2022-08-22T15:26:26.115Z,28.37
2022-08-22T15:29:04.489Z,28.35
2022-08-22T15:31:43.554Z,28.27
2022-08-22T15:34:19.869Z,28.22
2022-08-22T15:37:27.026Z,28.16
2022-08-22T15:39:59.304Z,28.03
2022-08-22T15:42:30.155Z,27.84
2022-08-22T15:45:04.992Z,27.64
2022-08-22T15:47:46.645Z,27.43
2022-08-22T15:50:27.978Z,27.33
2022-08-22T15:52:59.723Z,27.14
2022-08-22T15:55:34.287Z,27.03
2022-08-22T15:58:07.174Z,26.83
2022-08-22T16:00:36.389Z,26.60
2022-08-22T16:03:10.837Z,26.34
2022-08-22T16:05:41.250Z,26.19
2022-08-22T16:08:18.256Z,26.06
2022-08-22T16:10:54.837Z,26.02
2022-08-22T16:13:27.632Z,25.78
2022-08-22T16:16:06.726Z,25.65
2022-08-22T16:18:33.588Z,25.55
2022-08-22T16:21:03.566Z,25.50
2022-08-22T16:23:50.416Z,25.40
2022-08-22T16:26:17.269Z,25.40
2022-08-22T16:29:00.755Z,25.35
2022-08-22T16:31:30.769Z,25.24
2022-08-22T16:34:15.871Z,25.35
2022-08-22T16:37:11.592Z,25.38
2022-08-22T16:39:43.436Z,25.40
2022-08-22T16:42:13.317Z,25.26
2022-08-22T16:44:45.815Z,25.19
2022-08-22T16:47:21.343Z,25.12
2022-08-22T16:49:51.362Z,25.02
2022-08-22T16:52:21.297Z,24.86
2022-08-22T16:55:07.528Z,24.80
2022-08-22T16:58:05.688Z,24.62
2022-08-22T17:00:36.280Z,24.26
2022-08-22T17:03:21.877Z,24.19
2022-08-22T17:06:01.012Z,24.11
2022-08-22T17:08:36.960Z,24.00
2022-08-22T17:11:36.214Z,23.86
2022-08-22T17:14:16.148Z,23.69
2022-08-22T17:16:58.323Z,23.71
2022-08-22T17:19:30.851Z,23.68
2022-08-22T17:22:01.225Z,23.61
2022-08-22T17:24:54.600Z,23.57
2022-08-22T17:27:27.694Z,23.52
2022-08-22T17:30:04.766Z,23.44
2022-08-22T17:32:46.959Z,23.43
2022-08-22T17:35:33.540Z,23.36
2022-08-22T17:38:00.622Z,23.29
2022-08-22T17:40:36.466Z,23.30
2022-08-22T17:43:15.570Z,23.23
2022-08-22T17:45:45.439Z,23.21
2022-08-22T17:48:12.279Z,23.16
2022-08-22T17:50:45.232Z,23.08
2022-08-22T17:53:24.429Z,22.98
2022-08-22T17:55:51.321Z,22.85
2022-08-22T17:58:31.708Z,22.74
2022-08-22T18:01:10.594Z,22.68
2022-08-22T18:03:40.029Z,22.64
2022-08-22T18:06:09.984Z,22.56
2022-08-22T18:11:38.812Z,22.40
2022-08-22T18:14:19.160Z,22.42
2022-08-22T18:16:47.843Z,22.35
2022-08-22T18:19:23.827Z,22.29
2022-08-22T18:22:03.611Z,22.12
2022-08-22T18:24:33.223Z,22.00
2022-08-22T18:27:34.220Z,21.86
2022-08-22T18:30:07.276Z,21.68
2022-08-22T18:32:37.165Z,21.63
2022-08-22T18:35:12.202Z,21.53
2022-08-22T18:37:43.003Z,21.40
2022-08-22T18:40:28.930Z,21.28
2022-08-22T18:43:08.179Z,21.20
2022-08-22T18:45:44.741Z,21.07
2022-08-22T18:48:36.614Z,21.02
2022-08-22T18:51:22.445Z,20.95
2022-08-22T18:53:51.353Z,20.88
2022-08-22T18:56:37.062Z,20.85
2022-08-22T18:59:10.147Z,20.75
2022-08-22T19:01:55.710Z,20.64
2022-08-22T19:04:25.658Z,20.52
2022-08-22T19:07:11.029Z,20.45
2022-08-22T19:09:49.312Z,20.38
2022-08-22T19:12:16.443Z,20.28
2022-08-22T19:14:43.394Z,20.19
2022-08-22T19:17:22.623Z,20.07
2022-08-22T19:19:49.546Z,19.93
2022-08-22T19:22:19.433Z,19.84
2022-08-22T19:25:09.076Z,19.72
2022-08-22T19:27:39.011Z,19.70
2022-08-22T19:30:08.648Z,19.66
2022-08-22T19:32:46.864Z,19.61
2022-08-22T19:35:19.937Z,19.56
2022-08-22T19:37:58.645Z,19.50
2022-08-22T19:40:48.102Z,19.39
2022-08-22T19:43:30.323Z,19.20
2022-08-22T19:45:59.722Z,19.14
2022-08-22T19:48:40.636Z,19.15
2022-08-22T19:51:27.922Z,19.10
2022-08-22T19:54:01.060Z,19.03
2022-08-22T19:56:49.635Z,18.91
2022-08-22T19:59:25.706Z,18.83
2022-08-22T20:01:52.660Z,18.75
2022-08-22T20:04:30.781Z,18.64
2022-08-22T20:07:14.691Z,18.58
2022-08-22T20:10:02.241Z,18.53
2022-08-22T20:12:29.113Z,18.43
2022-08-22T20:14:56.325Z,18.23
2022-08-22T20:17:26.348Z,18.17
2022-08-22T20:22:40.126Z,18.19
2022-08-22T20:25:06.988Z,18.16
2022-08-22T20:28:00.105Z,18.23
2022-08-22T20:30:29.369Z,18.41
2022-08-22T20:33:09.239Z,18.42
2022-08-22T20:35:41.195Z,18.58
2022-08-22T20:38:14.752Z,18.63
2022-08-22T20:40:55.629Z,18.62
2022-08-22T20:43:24.323Z,18.68
2022-08-22T20:46:15.403Z,18.81
2022-08-22T20:48:43.645Z,18.92
2022-08-22T20:51:14.049Z,18.92
2022-08-22T20:53:41.557Z,18.94
2022-08-22T20:56:08.561Z,18.97
2022-08-22T20:58:39.456Z,18.97
2022-08-22T21:01:09.893Z,18.94
2022-08-22T21:03:36.951Z,19.17
2022-08-22T21:06:28.171Z,19.15
2022-08-22T21:09:09.608Z,19.00
2022-08-22T21:11:36.527Z,18.97
2022-08-22T21:14:17.153Z,19.05
2022-08-22T21:16:44.082Z,19.02
2022-08-22T21:19:17.467Z,19.04
2022-08-22T21:21:44.413Z,19.05
2022-08-22T21:24:11.333Z,19.03
2022-08-22T21:26:46.146Z,19.00
2022-08-22T21:29:13.042Z,19.03
2022-08-22T21:31:42.913Z,19.03
2022-08-22T21:34:14.553Z,19.18
2022-08-22T21:36:41.685Z,19.10
2022-08-22T21:39:23.777Z,19.06
2022-08-22T21:41:53.437Z,19.06
2022-08-22T21:44:43.369Z,19.08
2022-08-22T21:47:16.546Z,19.10
2022-08-22T21:49:58.293Z,19.04
2022-08-22T21:52:26.099Z,18.95
2022-08-22T21:54:53.013Z,19.04
2022-08-22T21:57:31.445Z,18.97
2022-08-22T21:59:58.830Z,19.04
2022-08-22T22:02:29.478Z,19.12
2022-08-22T22:04:58.933Z,19.16
2022-08-22T22:07:26.595Z,19.25
2022-08-22T22:09:54.926Z,19.32
2022-08-22T22:12:23.125Z,19.35
2022-08-22T22:14:50.500Z,19.44
2022-08-22T22:17:18.242Z,19.56
2022-08-22T22:19:45.345Z,19.69
2022-08-22T22:22:13.304Z,19.83
2022-08-22T22:24:40.200Z,19.95
2022-08-22T22:27:07.200Z,19.93
2022-08-22T22:29:34.565Z,19.95
2022-08-22T22:32:01.707Z,19.94
2022-08-22T22:34:28.619Z,19.95
2022-08-22T22:36:55.599Z,19.96
2022-08-22T22:39:22.538Z,19.96
2022-08-22T22:41:49.428Z,20.05
2022-08-22T22:44:16.303Z,20.14
2022-08-22T22:46:43.245Z,20.20
2022-08-22T22:49:10.219Z,20.25
2022-08-22T22:51:37.213Z,20.27
2022-08-22T22:54:04.229Z,20.29
2022-08-22T22:56:31.552Z,20.30
2022-08-22T22:59:01.166Z,20.30
2022-08-22T23:01:59.213Z,20.23
2022-08-22T23:04:26.132Z,20.25
2022-08-22T23:06:53.090Z,20.26
2022-08-22T23:09:20.023Z,20.23
2022-08-22T23:11:47.359Z,20.27
2022-08-22T23:14:14.291Z,20.25
2022-08-22T23:16:41.246Z,20.25
2022-08-22T23:19:09.196Z,20.16
2022-08-22T23:21:36.174Z,20.22
2022-08-22T23:24:03.519Z,20.18
2022-08-22T23:26:30.541Z,20.17
2022-08-22T23:28:57.774Z,20.12
2022-08-22T23:31:33.915Z,20.05
2022-08-22T23:34:03.342Z,20.03
2022-08-22T23:36:30.291Z,19.94
2022-08-22T23:38:57.247Z,19.91
2022-08-22T23:41:24.224Z,19.82
2022-08-22T23:43:52.476Z,19.74
2022-08-22T23:46:21.191Z,19.73
2022-08-22T23:48:48.318Z,19.68
2022-08-22T23:51:17.289Z,19.62
2022-08-22T23:53:50.654Z,19.62
2022-08-22T23:56:20.107Z,19.62
2022-08-22T23:58:49.297Z,19.52
